createdAt,value
2022-10-17T00:00:58.806Z,100.00
2022-10-17T00:03:26.301Z,100.00
2022-10-17T00:05:53.656Z,100.00
2022-10-17T00:08:21.714Z,100.00
2022-10-17T00:10:57.710Z,100.00
2022-10-17T00:13:25.238Z,100.00
2022-10-17T00:15:52.833Z,100.00
2022-10-17T00:18:20.641Z,100.00
2022-10-17T00:20:48.052Z,100.00
2022-10-17T00:23:17.825Z,100.00
2022-10-17T00:25:45.243Z,100.00
2022-10-17T00:28:14.075Z,100.00
2022-10-17T00:30:41.498Z,100.00
2022-10-17T00:33:08.896Z,100.00
2022-10-17T00:35:36.469Z,100.00
2022-10-17T00:38:04.744Z,100.00
2022-10-17T00:40:32.234Z,100.00
2022-10-17T00:42:59.494Z,100.00
2022-10-17T00:45:29.955Z,100.00
2022-10-17T00:48:08.465Z,100.00
2022-10-17T00:50:38.748Z,100.00
2022-10-17T00:53:08.100Z,100.00
2022-10-17T00:55:42.268Z,100.00
2022-10-17T00:58:09.812Z,100.00
2022-10-17T01:00:37.396Z,100.00
2022-10-17T01:03:05.106Z,100.00
2022-10-17T01:05:32.539Z,100.00
2022-10-17T01:08:00.671Z,100.00
2022-10-17T01:10:34.969Z,100.00
2022-10-17T01:13:12.534Z,100.00
2022-10-17T01:16:11.646Z,100.00
2022-10-17T01:19:14.185Z,100.00
2022-10-17T01:22:43.310Z,100.00
2022-10-17T01:25:58.658Z,100.00
2022-10-17T01:28:26.181Z,100.00
2022-10-17T01:31:23.597Z,100.00
2022-10-17T01:34:02.801Z,100.00
2022-10-17T01:37:01.197Z,100.00
2022-10-17T01:39:30.065Z,100.00
2022-10-17T01:42:17.110Z,100.00
2022-10-17T01:44:58.406Z,100.00
2022-10-17T01:47:29.520Z,100.00
2022-10-17T01:50:03.218Z,100.00
2022-10-17T01:52:38.917Z,100.00
2022-10-17T01:55:09.096Z,100.00
2022-10-17T01:57:45.159Z,100.00
2022-10-17T02:00:19.024Z,100.00
2022-10-17T02:03:04.346Z,100.00
2022-10-17T02:05:37.537Z,100.00
2022-10-17T02:08:05.707Z,100.00
2022-10-17T02:11:06.181Z,100.00
2022-10-17T02:14:01.641Z,100.00
2022-10-17T02:16:38.802Z,100.00
2022-10-17T02:19:36.770Z,100.00
2022-10-17T02:22:30.155Z,100.00
2022-10-17T02:25:21.796Z,100.00
2022-10-17T02:28:15.751Z,100.00
2022-10-17T02:30:50.501Z,100.00
2022-10-17T02:33:43.784Z,100.00
2022-10-17T02:36:20.558Z,100.00
2022-10-17T02:38:50.132Z,100.00
2022-10-17T02:41:21.431Z,100.00
2022-10-17T02:43:50.614Z,100.00
2022-10-17T02:46:22.787Z,100.00
2022-10-17T02:49:03.627Z,100.00
2022-10-17T02:51:45.233Z,100.00
2022-10-17T02:54:20.410Z,100.00
2022-10-17T02:56:59.170Z,100.00
2022-10-17T02:59:30.671Z,100.00
2022-10-17T03:01:58.206Z,100.00
2022-10-17T03:04:25.640Z,100.00
2022-10-17T03:06:53.057Z,100.00
2022-10-17T03:09:20.466Z,100.00
2022-10-17T03:11:47.824Z,100.00
2022-10-17T03:14:17.836Z,100.00
2022-10-17T03:16:45.514Z,100.00
2022-10-17T03:19:13.835Z,100.00
2022-10-17T03:21:41.399Z,100.00
2022-10-17T03:24:08.799Z,100.00
2022-10-17T03:26:38.475Z,100.00
2022-10-17T03:29:07.456Z,100.00
2022-10-17T03:31:36.226Z,100.00
2022-10-17T03:34:04.543Z,100.00
2022-10-17T03:36:34.579Z,100.00
2022-10-17T03:39:02.381Z,100.00
2022-10-17T03:41:30.085Z,100.00
2022-10-17T03:43:57.439Z,100.00
2022-10-17T03:46:25.354Z,100.00
2022-10-17T03:48:57.293Z,100.00
2022-10-17T03:51:25.229Z,100.00
2022-10-17T03:53:58.936Z,100.00
2022-10-17T03:56:26.938Z,100.00
2022-10-17T03:58:59.749Z,100.00
2022-10-17T04:01:28.511Z,100.00
2022-10-17T04:03:57.619Z,100.00
2022-10-17T04:06:27.940Z,100.00
2022-10-17T04:08:59.087Z,100.00
2022-10-17T04:11:55.418Z,100.00
2022-10-17T04:14:23.470Z,100.00
2022-10-17T04:16:51.744Z,100.00
2022-10-17T04:19:21.336Z,100.00
2022-10-17T04:21:50.322Z,100.00
2022-10-17T04:24:18.352Z,100.00
2022-10-17T04:27:15.070Z,100.00
2022-10-17T04:29:45.691Z,100.00
2022-10-17T04:32:20.410Z,100.00
2022-10-17T04:35:04.879Z,100.00
2022-10-17T04:37:32.805Z,100.00
2022-10-17T04:40:04.116Z,100.00
2022-10-17T04:42:33.005Z,100.00
2022-10-17T04:45:00.455Z,100.00
2022-10-17T04:47:28.302Z,100.00
2022-10-17T04:49:56.545Z,100.00
2022-10-17T04:52:25.181Z,100.00
2022-10-17T04:54:53.548Z,100.00
2022-10-17T04:57:21.705Z,100.00
2022-10-17T04:59:59.372Z,100.00
2022-10-17T05:05:32.424Z,100.00
2022-10-17T05:08:00.752Z,100.00
2022-10-17T05:10:35.933Z,100.00
2022-10-17T05:13:04.953Z,100.00
2022-10-17T05:15:33.866Z,100.00
2022-10-17T05:18:02.802Z,100.00
2022-10-17T05:20:31.028Z,100.00
2022-10-17T05:23:02.156Z,100.00
2022-10-17T05:25:34.876Z,100.00
2022-10-17T05:28:02.330Z,100.00
2022-10-17T05:30:33.709Z,100.00
2022-10-17T05:33:05.061Z,100.00
2022-10-17T05:35:32.910Z,100.00
2022-10-17T05:38:00.596Z,100.00
2022-10-17T05:40:28.606Z,100.00
2022-10-17T05:42:55.976Z,100.00
2022-10-17T05:45:24.533Z,100.00
2022-10-17T05:47:52.101Z,100.00
2022-10-17T05:50:21.983Z,100.00
2022-10-17T05:53:18.460Z,100.00
2022-10-17T05:55:56.399Z,100.00
2022-10-17T05:58:45.577Z,100.00
2022-10-17T06:01:18.803Z,100.00
2022-10-17T06:03:46.229Z,100.00
2022-10-17T06:06:14.897Z,100.00
2022-10-17T06:08:45.154Z,100.00
2022-10-17T06:11:16.137Z,100.00
2022-10-17T06:13:43.551Z,100.00
2022-10-17T06:16:16.263Z,100.00
2022-10-17T06:18:45.006Z,100.00
2022-10-17T06:21:17.094Z,100.00
2022-10-17T06:23:47.340Z,100.00
2022-10-17T06:26:19.849Z,100.00
2022-10-17T06:28:47.441Z,100.00
2022-10-17T06:31:16.950Z,100.00
2022-10-17T06:33:44.441Z,100.00
2022-10-17T06:36:15.341Z,100.00
2022-10-17T06:38:43.761Z,100.00
2022-10-17T06:41:20.222Z,100.00
2022-10-17T06:43:47.867Z,100.00
2022-10-17T06:46:40.466Z,100.00
2022-10-17T06:49:10.453Z,99.33
2022-10-17T06:51:52.365Z,98.75
2022-10-17T06:54:23.972Z,98.51
2022-10-17T06:57:10.522Z,99.13
2022-10-17T06:59:50.503Z,98.77
2022-10-17T07:02:28.361Z,99.47
2022-10-17T07:04:57.859Z,100.00
2022-10-17T07:07:25.266Z,99.28
2022-10-17T07:09:53.620Z,98.66
2022-10-17T07:12:21.290Z,98.44
2022-10-17T07:14:50.702Z,97.71
2022-10-17T07:17:20.712Z,96.80
2022-10-17T07:19:48.647Z,94.76
2022-10-17T07:22:16.022Z,94.50
2022-10-17T07:24:47.337Z,94.44
2022-10-17T07:27:20.172Z,93.90
2022-10-17T07:29:48.190Z,93.92
2022-10-17T07:32:33.712Z,92.18
2022-10-17T07:35:01.460Z,90.93
2022-10-17T07:37:30.154Z,90.80
2022-10-17T07:40:00.888Z,89.99
2022-10-17T07:42:28.664Z,86.79
2022-10-17T07:44:56.094Z,83.22
2022-10-17T07:47:24.310Z,79.00
2022-10-17T07:49:53.000Z,75.52
2022-10-17T07:52:20.594Z,73.18
2022-10-17T07:54:47.926Z,72.09
2022-10-17T07:57:15.277Z,69.91
2022-10-17T07:59:42.687Z,67.61
2022-10-17T08:02:22.590Z,68.01
2022-10-17T08:04:51.599Z,66.78
2022-10-17T08:07:23.206Z,66.66
2022-10-17T08:09:52.815Z,65.90
2022-10-17T08:12:20.479Z,63.26
2022-10-17T08:14:48.221Z,61.28
2022-10-17T08:17:15.581Z,59.49
2022-10-17T08:19:42.938Z,60.39
2022-10-17T08:22:10.275Z,59.72
2022-10-17T08:24:37.994Z,59.27
2022-10-17T08:27:11.419Z,59.64
2022-10-17T08:29:40.050Z,57.42
2022-10-17T08:32:09.930Z,58.08
2022-10-17T08:34:37.648Z,57.42
2022-10-17T08:37:05.104Z,58.59
2022-10-17T08:39:32.494Z,55.68
2022-10-17T08:42:05.779Z,54.71
2022-10-17T08:44:43.160Z,55.70
2022-10-17T08:47:15.673Z,53.13
2022-10-17T08:49:48.525Z,53.06
2022-10-17T08:52:56.500Z,53.66
2022-10-17T08:55:42.831Z,53.16
2022-10-17T08:58:34.112Z,52.08
2022-10-17T09:01:13.692Z,54.32
2022-10-17T09:03:47.151Z,52.47
2022-10-17T09:06:14.443Z,51.52
2022-10-17T09:08:46.711Z,53.24
2022-10-17T09:11:56.209Z,53.94
2022-10-17T09:14:52.121Z,52.35
2022-10-17T09:17:43.949Z,53.45
2022-10-17T09:20:20.838Z,51.26
2022-10-17T09:25:39.680Z,53.19
2022-10-17T09:28:13.942Z,54.29
2022-10-17T09:30:47.512Z,56.24
2022-10-17T09:33:34.746Z,56.08
2022-10-17T09:36:17.386Z,56.96
2022-10-17T09:38:48.808Z,57.97
2022-10-17T09:41:43.545Z,61.01
2022-10-17T09:44:16.836Z,61.03
2022-10-17T09:47:00.444Z,61.82
2022-10-17T09:49:37.109Z,62.45
2022-10-17T09:52:09.670Z,62.62
2022-10-17T09:54:57.063Z,63.67
2022-10-17T09:57:25.504Z,64.14
2022-10-17T10:00:02.460Z,65.45
2022-10-17T10:02:32.402Z,66.09
2022-10-17T10:05:18.921Z,66.61
2022-10-17T10:08:03.535Z,66.84
2022-10-17T10:10:32.176Z,67.40
2022-10-17T10:13:04.824Z,68.26
2022-10-17T10:15:44.000Z,68.57
2022-10-17T10:21:10.247Z,68.80
2022-10-17T10:23:42.827Z,68.92
2022-10-17T10:26:25.593Z,69.84
2022-10-17T10:28:59.900Z,70.17
2022-10-17T10:31:31.379Z,71.30
2022-10-17T10:34:02.320Z,70.29
2022-10-17T10:37:24.310Z,69.47
2022-10-17T10:40:01.051Z,69.97
2022-10-17T10:42:30.753Z,69.94
2022-10-17T10:45:03.951Z,70.61
2022-10-17T10:47:33.036Z,70.35
2022-10-17T10:50:24.232Z,72.02
2022-10-17T10:53:22.504Z,73.35
2022-10-17T10:55:56.854Z,72.34
2022-10-17T10:58:50.538Z,70.68
2022-10-17T11:01:39.053Z,69.41
2022-10-17T11:04:19.904Z,68.81
2022-10-17T11:06:50.399Z,69.89
2022-10-17T11:09:33.863Z,69.98
2022-10-17T11:12:46.501Z,71.11
2022-10-17T11:15:26.032Z,70.33
2022-10-17T11:18:06.860Z,69.61
2022-10-17T11:21:00.171Z,69.89
2022-10-17T11:23:44.875Z,70.76
2022-10-17T11:26:26.911Z,70.29
2022-10-17T11:28:55.480Z,70.54
2022-10-17T11:31:31.724Z,70.03
2022-10-17T11:34:10.847Z,69.62
2022-10-17T11:36:41.923Z,68.72
2022-10-17T11:39:20.553Z,67.85
2022-10-17T11:42:22.333Z,68.49
2022-10-17T11:44:52.450Z,67.65
2022-10-17T11:47:38.279Z,66.64
2022-10-17T11:53:19.717Z,66.88
2022-10-17T11:55:47.878Z,66.03
2022-10-17T11:58:30.657Z,65.24
2022-10-17T12:01:32.905Z,63.68
2022-10-17T12:04:18.371Z,65.07
2022-10-17T12:07:17.508Z,64.43
2022-10-17T12:09:50.596Z,64.64
2022-10-17T12:12:33.381Z,64.28
2022-10-17T12:15:12.827Z,64.69
2022-10-17T12:17:45.892Z,65.07
2022-10-17T12:20:25.449Z,64.44
2022-10-17T12:23:20.164Z,65.29
2022-10-17T12:26:25.333Z,64.94
2022-10-17T12:28:53.148Z,64.72
2022-10-17T12:31:21.774Z,65.65
2022-10-17T12:33:50.751Z,64.93
2022-10-17T12:36:22.565Z,64.81
2022-10-17T12:39:14.574Z,64.35
2022-10-17T12:41:42.526Z,64.18
2022-10-17T12:44:12.833Z,63.47
2022-10-17T12:46:56.718Z,63.87
2022-10-17T12:49:43.922Z,64.20
2022-10-17T12:52:11.325Z,64.57
2022-10-17T12:54:48.043Z,64.88
2022-10-17T12:57:41.146Z,64.04
2022-10-17T13:00:19.991Z,64.02
2022-10-17T13:02:49.174Z,62.75
2022-10-17T13:05:38.130Z,62.15
2022-10-17T13:08:13.317Z,63.90
2022-10-17T13:10:43.207Z,64.46
2022-10-17T13:13:15.911Z,63.24
2022-10-17T13:15:47.077Z,63.17
2022-10-17T13:18:26.940Z,62.13
2022-10-17T13:21:03.899Z,63.66
2022-10-17T13:23:34.824Z,65.07
2022-10-17T13:26:06.321Z,64.34
2022-10-17T13:28:38.426Z,64.00
2022-10-17T13:31:08.138Z,64.52
2022-10-17T13:33:40.319Z,63.78
2022-10-17T13:36:15.724Z,64.07
2022-10-17T13:38:43.380Z,63.56
2022-10-17T13:41:34.672Z,64.67
2022-10-17T13:44:07.362Z,62.83
2022-10-17T13:46:38.432Z,63.15
2022-10-17T13:49:32.648Z,61.79
2022-10-17T13:52:02.465Z,61.70
2022-10-17T13:54:43.762Z,62.58
2022-10-17T13:57:18.891Z,62.17
2022-10-17T13:59:50.364Z,61.74
2022-10-17T14:02:22.868Z,62.08
2022-10-17T14:05:19.195Z,61.46
2022-10-17T14:08:11.202Z,62.08
2022-10-17T14:10:44.015Z,62.29
2022-10-17T14:13:28.204Z,62.29
2022-10-17T14:15:59.528Z,62.31
2022-10-17T14:18:36.803Z,62.61
2022-10-17T14:24:28.669Z,62.59
2022-10-17T14:27:01.377Z,62.87
2022-10-17T14:29:31.894Z,62.69
2022-10-17T14:32:06.326Z,62.19
2022-10-17T14:34:37.017Z,61.92
2022-10-17T14:37:32.225Z,61.67
2022-10-17T14:40:01.328Z,61.56
2022-10-17T14:42:29.198Z,62.74
2022-10-17T14:45:06.165Z,61.83
2022-10-17T14:47:49.584Z,62.79
2022-10-17T14:50:26.379Z,62.28
2022-10-17T14:53:07.617Z,62.25
2022-10-17T14:55:36.609Z,63.28
2022-10-17T14:58:25.514Z,63.23
2022-10-17T15:00:52.929Z,63.72
2022-10-17T15:03:20.382Z,64.15
2022-10-17T15:05:49.209Z,64.16
2022-10-17T15:08:21.690Z,63.98
2022-10-17T15:10:50.533Z,63.56
2022-10-17T15:13:39.984Z,63.21
2022-10-17T15:16:19.470Z,64.34
2022-10-17T15:18:46.895Z,63.76
2022-10-17T15:21:26.261Z,63.98
2022-10-17T15:24:01.794Z,64.17
2022-10-17T15:26:34.139Z,64.16
2022-10-17T15:29:01.817Z,63.73
2022-10-17T15:31:31.537Z,63.49
2022-10-17T15:33:58.969Z,62.54
2022-10-17T15:36:48.297Z,62.78
2022-10-17T15:39:15.827Z,63.10
2022-10-17T15:41:43.203Z,62.98
2022-10-17T15:44:10.594Z,62.93
2022-10-17T15:46:41.287Z,62.70
2022-10-17T15:49:14.760Z,63.51
2022-10-17T15:51:42.110Z,62.17
2022-10-17T15:54:09.648Z,62.01
2022-10-17T15:56:40.623Z,61.94
2022-10-17T15:59:13.009Z,62.78
2022-10-17T16:01:41.149Z,63.06
2022-10-17T16:04:15.105Z,63.39
2022-10-17T16:06:43.102Z,63.10
2022-10-17T16:09:10.867Z,63.61
2022-10-17T16:11:41.078Z,64.30
2022-10-17T16:14:12.918Z,64.80
2022-10-17T16:16:40.666Z,65.00
2022-10-17T16:19:10.151Z,65.28
2022-10-17T16:21:40.113Z,65.65
2022-10-17T16:24:11.213Z,66.17
2022-10-17T16:26:39.472Z,66.30
2022-10-17T16:29:06.909Z,66.49
2022-10-17T16:31:36.526Z,66.70
2022-10-17T16:34:06.452Z,66.93
2022-10-17T16:36:33.828Z,66.55
2022-10-17T16:39:01.190Z,66.74
2022-10-17T16:41:30.778Z,67.56
2022-10-17T16:44:00.484Z,67.82
2022-10-17T16:46:29.479Z,67.62
2022-10-17T16:48:57.052Z,67.49
2022-10-17T16:51:25.418Z,67.95
2022-10-17T16:53:54.517Z,67.96
2022-10-17T16:56:26.502Z,68.68
2022-10-17T16:58:53.693Z,69.22
2022-10-17T17:01:23.315Z,69.82
2022-10-17T17:03:52.285Z,70.35
2022-10-17T17:06:22.412Z,70.65
2022-10-17T17:08:50.753Z,71.10
2022-10-17T17:11:21.016Z,71.68
2022-10-17T17:13:48.673Z,72.02
2022-10-17T17:16:22.645Z,72.49
2022-10-17T17:18:54.569Z,72.96
2022-10-17T17:21:21.866Z,73.26
2022-10-17T17:23:49.475Z,73.70
2022-10-17T17:26:19.765Z,73.98
2022-10-17T17:28:49.367Z,74.46
2022-10-17T17:31:19.580Z,74.79
2022-10-17T17:33:47.110Z,74.78
2022-10-17T17:36:19.180Z,74.98
2022-10-17T17:38:47.478Z,75.78
2022-10-17T17:41:17.650Z,75.85
2022-10-17T17:43:47.430Z,76.62
2022-10-17T17:46:19.292Z,77.61
2022-10-17T17:48:47.955Z,78.78
2022-10-17T17:51:18.289Z,79.50
2022-10-17T17:53:45.896Z,80.40
2022-10-17T17:56:16.364Z,80.82
2022-10-17T17:58:45.847Z,80.81
2022-10-17T18:01:21.522Z,80.93
2022-10-17T18:03:50.727Z,80.67
2022-10-17T18:06:19.023Z,80.78
2022-10-17T18:08:52.032Z,80.56
2022-10-17T18:11:21.968Z,80.69
2022-10-17T18:14:23.687Z,81.37
2022-10-17T18:16:51.194Z,81.79
2022-10-17T18:19:22.838Z,82.14
2022-10-17T18:21:50.286Z,82.66
2022-10-17T18:24:17.606Z,83.07
2022-10-17T18:26:44.960Z,83.72
2022-10-17T18:29:12.852Z,84.54
2022-10-17T18:31:40.577Z,85.22
2022-10-17T18:34:07.999Z,86.33
2022-10-17T18:36:37.193Z,87.08
2022-10-17T18:39:05.406Z,87.60
2022-10-17T18:41:33.662Z,87.34
2022-10-17T18:44:05.239Z,87.04
2022-10-17T18:46:40.590Z,86.76
2022-10-17T18:49:18.951Z,86.29
2022-10-17T18:51:46.860Z,86.46
2022-10-17T18:54:17.188Z,86.42
2022-10-17T18:56:45.072Z,86.25
2022-10-17T18:59:12.405Z,86.59
2022-10-17T19:01:39.801Z,86.28
2022-10-17T19:04:07.155Z,86.55
2022-10-17T19:06:34.580Z,86.39
2022-10-17T19:09:04.473Z,87.15
2022-10-17T19:11:33.550Z,87.51
2022-10-17T19:14:08.179Z,87.69
2022-10-17T19:16:37.215Z,87.15
2022-10-17T19:19:08.258Z,86.88
2022-10-17T19:21:35.647Z,87.09
2022-10-17T19:24:05.972Z,87.20
2022-10-17T19:26:36.071Z,87.84
2022-10-17T19:29:04.826Z,88.21
2022-10-17T19:31:34.816Z,88.56
2022-10-17T19:34:02.666Z,88.33
2022-10-17T19:36:33.377Z,88.38
2022-10-17T19:39:07.594Z,88.54
2022-10-17T19:41:36.372Z,88.84
2022-10-17T19:44:03.711Z,88.76
2022-10-17T19:46:35.032Z,89.00
2022-10-17T19:49:03.441Z,89.35
2022-10-17T19:51:31.139Z,90.04
2022-10-17T19:54:00.536Z,90.40
2022-10-17T19:56:33.725Z,90.47
2022-10-17T19:59:01.672Z,89.98
2022-10-17T20:01:33.400Z,89.87
2022-10-17T20:04:01.342Z,90.15
2022-10-17T20:06:28.727Z,90.86
2022-10-17T20:08:56.416Z,90.62
2022-10-17T20:11:26.255Z,91.00
2022-10-17T20:13:54.991Z,90.68
2022-10-17T20:16:25.622Z,90.60
2022-10-17T20:18:56.454Z,91.10
2022-10-17T20:21:35.052Z,91.45
2022-10-17T20:24:04.543Z,92.36
2022-10-17T20:26:38.328Z,92.44
2022-10-17T20:29:18.022Z,91.91
2022-10-17T20:31:46.680Z,92.60
2022-10-17T20:34:15.236Z,92.76
2022-10-17T20:36:42.623Z,93.29
2022-10-17T20:39:12.769Z,93.96
2022-10-17T20:41:40.818Z,94.27
2022-10-17T20:44:08.482Z,93.52
2022-10-17T20:46:39.739Z,93.17
2022-10-17T20:49:17.438Z,94.16
2022-10-17T20:51:45.416Z,94.36
2022-10-17T20:54:13.214Z,95.30
2022-10-17T20:56:40.597Z,95.63
2022-10-17T20:59:12.698Z,95.61
2022-10-17T21:01:40.474Z,96.33
2022-10-17T21:04:33.759Z,96.07
2022-10-17T21:06:55.317Z,96.36
2022-10-17T21:09:22.910Z,96.60
2022-10-17T21:11:54.190Z,96.88
2022-10-17T21:14:23.091Z,96.58
2022-10-17T21:16:52.269Z,96.76
2022-10-17T21:19:19.790Z,96.85
2022-10-17T21:21:47.825Z,96.14
2022-10-17T21:24:20.815Z,96.11
2022-10-17T21:26:53.508Z,95.30
2022-10-17T21:29:22.050Z,95.30
2022-10-17T21:31:49.741Z,95.31
2022-10-17T21:34:23.952Z,95.30
2022-10-17T21:36:51.850Z,94.57
2022-10-17T21:39:19.781Z,94.45
2022-10-17T21:41:48.319Z,94.36
2022-10-17T21:44:18.179Z,94.52
2022-10-17T21:46:46.793Z,94.73
2022-10-17T21:49:17.284Z,94.65
2022-10-17T21:51:48.594Z,95.44
2022-10-17T21:54:17.982Z,95.44
2022-10-17T21:56:45.292Z,96.07
2022-10-17T21:59:12.856Z,96.69
2022-10-17T22:01:42.671Z,96.96
2022-10-17T22:04:14.861Z,96.70
2022-10-17T22:06:44.781Z,96.48
2022-10-17T22:09:19.969Z,97.09
2022-10-17T22:11:51.411Z,97.40
2022-10-17T22:14:21.549Z,97.79
2022-10-17T22:16:49.696Z,98.16
2022-10-17T22:19:21.193Z,99.29
2022-10-17T22:21:49.539Z,99.45
2022-10-17T22:24:18.815Z,99.44
2022-10-17T22:26:47.263Z,99.80
2022-10-17T22:29:15.243Z,99.57
2022-10-17T22:31:43.030Z,99.79
2022-10-17T22:34:13.437Z,99.63
2022-10-17T22:36:41.773Z,99.89
2022-10-17T22:39:09.948Z,100.00
2022-10-17T22:41:37.339Z,100.00
2022-10-17T22:44:04.832Z,100.00
2022-10-17T22:46:32.263Z,100.00
2022-10-17T22:48:59.606Z,100.00
2022-10-17T22:51:27.113Z,100.00
2022-10-17T22:53:54.578Z,99.77
2022-10-17T22:56:23.016Z,99.47
2022-10-17T22:58:50.881Z,98.57
2022-10-17T23:01:21.078Z,98.15
2022-10-17T23:03:50.921Z,98.28
2022-10-17T23:06:19.409Z,98.39
2022-10-17T23:08:47.336Z,98.14
2022-10-17T23:11:14.758Z,97.01
2022-10-17T23:13:42.163Z,96.79
2022-10-17T23:16:11.090Z,96.91
2022-10-17T23:18:39.472Z,97.22
2022-10-17T23:21:07.894Z,97.85
2022-10-17T23:23:36.300Z,98.62
2022-10-17T23:26:08.746Z,99.36
2022-10-17T23:28:36.505Z,99.43
2022-10-17T23:31:18.311Z,98.81
2022-10-17T23:33:48.169Z,98.20
2022-10-17T23:36:18.333Z,97.97
2022-10-17T23:38:46.760Z,98.09
2022-10-17T23:41:29.152Z,97.53
2022-10-17T23:43:56.588Z,97.26
2022-10-17T23:46:24.161Z,96.96
2022-10-17T23:48:51.719Z,96.95
2022-10-17T23:51:19.821Z,97.01
2022-10-17T23:53:50.287Z,98.03
2022-10-17T23:56:17.826Z,98.68
2022-10-17T23:58:45.187Z,98.66
